createdAt,value
2023-03-29T00:00:53.467Z,913.00
2023-03-29T00:01:53.489Z,914.00
2023-03-29T00:02:53.604Z,906.00
2023-03-29T00:03:53.590Z,907.00
2023-03-29T00:04:53.544Z,904.00
2023-03-29T00:05:53.569Z,905.00
2023-03-29T00:06:53.594Z,905.00
2023-03-29T00:07:53.615Z,897.00
2023-03-29T00:08:53.632Z,896.00
2023-03-29T00:09:53.655Z,891.00
2023-03-29T00:10:53.676Z,903.00
2023-03-29T00:11:53.698Z,897.00
2023-03-29T00:12:53.719Z,883.00
2023-03-29T00:13:53.730Z,900.00
2023-03-29T00:14:53.773Z,894.00
2023-03-29T00:15:53.780Z,883.00
2023-03-29T00:16:53.850Z,887.00
2023-03-29T00:17:53.846Z,898.00
2023-03-29T00:18:53.854Z,888.00
2023-03-29T00:19:53.873Z,889.00
2023-03-29T00:20:53.906Z,890.00
2023-03-29T00:21:53.917Z,881.00
2023-03-29T00:22:53.941Z,886.00
2023-03-29T00:23:53.957Z,885.00
2023-03-29T00:24:54.000Z,885.00
2023-03-29T00:25:54.015Z,875.00
2023-03-29T00:26:54.043Z,886.00
2023-03-29T00:27:54.065Z,880.00
2023-03-29T00:28:54.078Z,860.00
2023-03-29T00:29:54.104Z,865.00
2023-03-29T00:30:54.139Z,864.00
2023-03-29T00:31:54.178Z,869.00
2023-03-29T00:32:54.209Z,866.00
2023-03-29T00:33:54.201Z,863.00
2023-03-29T00:34:54.228Z,851.00
2023-03-29T00:35:54.292Z,850.00
2023-03-29T00:36:54.281Z,855.00
2023-03-29T00:37:54.304Z,860.00
2023-03-29T00:38:54.328Z,850.00
2023-03-29T00:39:54.349Z,846.00
2023-03-29T00:40:54.361Z,853.00
2023-03-29T00:41:54.381Z,846.00
2023-03-29T00:42:54.377Z,860.00
2023-03-29T00:43:54.397Z,857.00
2023-03-29T00:44:54.404Z,858.00
2023-03-29T00:45:54.497Z,854.00
2023-03-29T00:46:54.635Z,847.00
2023-03-29T00:47:54.462Z,851.00
2023-03-29T00:48:54.472Z,853.00
2023-03-29T00:49:55.031Z,843.00
2023-03-29T00:50:54.536Z,841.00
2023-03-29T00:51:54.545Z,831.00
2023-03-29T00:52:54.584Z,838.00
2023-03-29T00:53:54.607Z,842.00
2023-03-29T00:54:54.618Z,848.00
2023-03-29T00:55:54.645Z,836.00
2023-03-29T00:56:54.687Z,841.00
2023-03-29T00:57:54.695Z,837.00
2023-03-29T00:58:54.718Z,838.00
2023-03-29T00:59:54.745Z,842.00
2023-03-29T01:00:54.762Z,837.00
2023-03-29T01:01:55.123Z,834.00
2023-03-29T01:02:54.996Z,832.00
2023-03-29T01:03:54.905Z,830.00
2023-03-29T01:04:54.872Z,836.00
2023-03-29T01:05:54.899Z,834.00
2023-03-29T01:06:54.974Z,837.00
2023-03-29T01:07:54.962Z,839.00
2023-03-29T01:08:54.993Z,834.00
2023-03-29T01:09:55.008Z,836.00
2023-03-29T01:10:55.039Z,830.00
2023-03-29T01:11:55.074Z,832.00
2023-03-29T01:12:55.091Z,833.00
2023-03-29T01:13:55.122Z,826.00
2023-03-29T01:14:55.158Z,824.00
2023-03-29T01:15:55.225Z,832.00
2023-03-29T01:16:55.275Z,829.00
2023-03-29T01:17:55.282Z,826.00
2023-03-29T01:18:55.263Z,827.00
2023-03-29T01:19:56.034Z,819.00
2023-03-29T01:20:55.321Z,828.00
2023-03-29T01:21:55.346Z,819.00
2023-03-29T01:22:55.381Z,813.00
2023-03-29T01:23:55.399Z,824.00
2023-03-29T01:24:55.437Z,813.00
2023-03-29T01:25:55.456Z,817.00
2023-03-29T01:26:55.510Z,816.00
2023-03-29T01:27:55.526Z,809.00
2023-03-29T01:28:55.542Z,795.00
2023-03-29T01:29:55.574Z,808.00
2023-03-29T01:30:55.602Z,812.00
2023-03-29T01:31:55.693Z,808.00
2023-03-29T01:32:55.687Z,790.00
2023-03-29T01:33:55.692Z,809.00
2023-03-29T01:34:55.717Z,808.00
2023-03-29T01:35:55.746Z,798.00
2023-03-29T01:36:55.767Z,800.00
2023-03-29T01:37:55.802Z,804.00
2023-03-29T01:38:55.838Z,807.00
2023-03-29T01:39:55.861Z,809.00
2023-03-29T01:40:55.880Z,807.00
2023-03-29T01:41:55.909Z,812.00
2023-03-29T01:42:55.930Z,807.00
2023-03-29T01:43:55.951Z,805.00
2023-03-29T01:44:55.978Z,809.00
2023-03-29T01:45:56.041Z,812.00
2023-03-29T01:46:56.032Z,808.00
2023-03-29T01:47:56.158Z,799.00
2023-03-29T01:48:56.078Z,796.00
2023-03-29T01:49:56.097Z,802.00
2023-03-29T01:50:56.124Z,796.00
2023-03-29T01:51:56.141Z,801.00
2023-03-29T01:52:56.168Z,797.00
2023-03-29T01:53:56.232Z,795.00
2023-03-29T01:54:56.238Z,806.00
2023-03-29T01:55:56.239Z,801.00
2023-03-29T01:56:56.347Z,792.00
2023-03-29T01:57:56.308Z,795.00
2023-03-29T01:58:56.310Z,792.00
2023-03-29T01:59:56.322Z,817.00
2023-03-29T02:00:56.394Z,811.00
2023-03-29T02:01:56.514Z,791.00
2023-03-29T02:02:56.553Z,784.00
2023-03-29T02:03:56.429Z,795.00
2023-03-29T02:04:56.436Z,794.00
2023-03-29T02:05:56.471Z,784.00
2023-03-29T02:06:56.492Z,785.00
2023-03-29T02:07:56.530Z,784.00
2023-03-29T02:08:56.561Z,789.00
2023-03-29T02:09:56.578Z,796.00
2023-03-29T02:10:56.605Z,779.00
2023-03-29T02:11:56.617Z,793.00
2023-03-29T02:12:56.642Z,788.00
2023-03-29T02:13:56.665Z,782.00
2023-03-29T02:14:56.709Z,784.00
2023-03-29T02:15:56.742Z,770.00
2023-03-29T02:16:56.749Z,781.00
2023-03-29T02:17:56.864Z,782.00
2023-03-29T02:18:56.800Z,774.00
2023-03-29T02:19:56.828Z,771.00
2023-03-29T02:20:56.850Z,773.00
2023-03-29T02:21:56.886Z,777.00
2023-03-29T02:22:56.931Z,775.00
2023-03-29T02:23:56.938Z,768.00
2023-03-29T02:24:56.965Z,766.00
2023-03-29T02:25:57.080Z,769.00
2023-03-29T02:26:57.018Z,773.00
2023-03-29T02:27:57.055Z,768.00
2023-03-29T02:28:57.077Z,762.00
2023-03-29T02:29:57.103Z,770.00
2023-03-29T02:30:57.149Z,775.00
2023-03-29T02:31:57.164Z,760.00
2023-03-29T02:32:57.262Z,767.00
2023-03-29T02:33:57.227Z,768.00
2023-03-29T02:34:57.245Z,765.00
2023-03-29T02:35:57.329Z,762.00
2023-03-29T02:36:57.299Z,763.00
2023-03-29T02:37:57.320Z,760.00
2023-03-29T02:38:57.339Z,760.00
2023-03-29T02:39:57.376Z,766.00
2023-03-29T02:40:57.410Z,764.00
2023-03-29T02:41:57.434Z,758.00
2023-03-29T02:42:57.469Z,759.00
2023-03-29T02:43:57.484Z,763.00
2023-03-29T02:44:57.517Z,763.00
2023-03-29T02:45:57.546Z,748.00
2023-03-29T02:46:57.719Z,760.00
2023-03-29T02:47:57.666Z,754.00
2023-03-29T02:48:57.622Z,752.00
2023-03-29T02:49:57.744Z,758.00
2023-03-29T02:50:57.685Z,748.00
2023-03-29T02:51:57.717Z,750.00
2023-03-29T02:52:57.739Z,744.00
2023-03-29T02:53:57.764Z,742.00
2023-03-29T02:54:57.784Z,724.00
2023-03-29T02:55:57.830Z,748.00
2023-03-29T02:56:57.907Z,737.00
2023-03-29T02:57:57.888Z,745.00
2023-03-29T02:58:57.897Z,727.00
2023-03-29T02:59:57.920Z,736.00
2023-03-29T03:00:57.955Z,735.00
2023-03-29T03:01:58.033Z,731.00
2023-03-29T03:03:00.618Z,741.00
2023-03-29T03:03:57.995Z,738.00
2023-03-29T03:04:57.953Z,748.00
2023-03-29T03:05:57.939Z,747.00
2023-03-29T03:06:57.936Z,736.00
2023-03-29T03:07:57.911Z,748.00
2023-03-29T03:08:57.897Z,748.00
2023-03-29T03:09:57.885Z,752.00
2023-03-29T03:10:57.873Z,750.00
2023-03-29T03:11:57.863Z,750.00
2023-03-29T03:12:57.845Z,747.00
2023-03-29T03:13:57.820Z,750.00
2023-03-29T03:14:57.801Z,737.00
2023-03-29T03:15:57.837Z,746.00
2023-03-29T03:16:57.778Z,742.00
2023-03-29T03:17:57.830Z,741.00
2023-03-29T03:18:57.746Z,738.00
2023-03-29T03:19:57.725Z,738.00
2023-03-29T03:20:57.721Z,723.00
2023-03-29T03:21:57.717Z,727.00
2023-03-29T03:22:57.681Z,736.00
2023-03-29T03:23:57.656Z,726.00
2023-03-29T03:24:57.642Z,731.00
2023-03-29T03:25:57.625Z,729.00
2023-03-29T03:26:57.612Z,726.00
2023-03-29T03:27:57.588Z,733.00
2023-03-29T03:28:57.573Z,728.00
2023-03-29T03:29:57.549Z,738.00
2023-03-29T03:30:57.561Z,718.00
2023-03-29T03:31:57.569Z,736.00
2023-03-29T03:32:57.543Z,728.00
2023-03-29T03:33:57.486Z,720.00
2023-03-29T03:34:57.466Z,716.00
2023-03-29T03:35:57.508Z,720.00
2023-03-29T03:36:57.436Z,711.00
2023-03-29T03:37:57.410Z,719.00
2023-03-29T03:38:57.387Z,725.00
2023-03-29T03:39:57.369Z,720.00
2023-03-29T03:40:57.378Z,707.00
2023-03-29T03:41:57.328Z,702.00
2023-03-29T03:42:57.323Z,720.00
2023-03-29T03:43:57.292Z,719.00
2023-03-29T03:44:57.276Z,710.00
2023-03-29T03:45:57.320Z,717.00
2023-03-29T03:46:57.233Z,700.00
2023-03-29T03:47:57.238Z,718.00
2023-03-29T03:48:57.204Z,706.00
2023-03-29T03:49:57.176Z,717.00
2023-03-29T03:50:57.165Z,703.00
2023-03-29T03:51:57.150Z,704.00
2023-03-29T03:52:57.200Z,692.00
2023-03-29T03:53:57.109Z,710.00
2023-03-29T03:54:57.075Z,710.00
2023-03-29T03:55:57.083Z,694.00
2023-03-29T03:56:57.119Z,698.00
2023-03-29T03:57:57.095Z,707.00
2023-03-29T03:58:57.092Z,704.00
2023-03-29T03:59:57.095Z,703.00
2023-03-29T04:00:57.100Z,710.00
2023-03-29T04:01:57.176Z,696.00
2023-03-29T04:02:57.235Z,710.00
2023-03-29T04:03:57.169Z,696.00
2023-03-29T04:04:57.121Z,705.00
2023-03-29T04:05:57.115Z,695.00
2023-03-29T04:06:57.125Z,707.00
2023-03-29T04:07:57.129Z,693.00
2023-03-29T04:08:57.129Z,689.00
2023-03-29T04:09:57.141Z,694.00
2023-03-29T04:10:57.148Z,701.00
2023-03-29T04:11:57.146Z,698.00
2023-03-29T04:12:57.149Z,687.00
2023-03-29T04:13:57.152Z,696.00
2023-03-29T04:14:57.151Z,697.00
2023-03-29T04:15:59.443Z,683.00
2023-03-29T04:16:57.119Z,715.00
2023-03-29T04:17:57.204Z,703.00
2023-03-29T04:18:57.100Z,690.00
2023-03-29T04:19:57.029Z,683.00
2023-03-29T04:20:57.000Z,687.00
2023-03-29T04:21:56.966Z,687.00
2023-03-29T04:22:56.947Z,688.00
2023-03-29T04:23:56.924Z,694.00
2023-03-29T04:24:56.879Z,691.00
2023-03-29T04:25:56.850Z,703.00
2023-03-29T04:26:56.817Z,694.00
2023-03-29T04:27:56.790Z,686.00
2023-03-29T04:28:57.107Z,694.00
2023-03-29T04:29:56.742Z,688.00
2023-03-29T04:30:56.733Z,695.00
2023-03-29T04:31:56.692Z,686.00
2023-03-29T04:32:56.743Z,680.00
2023-03-29T04:33:59.099Z,694.00
2023-03-29T04:34:56.626Z,695.00
2023-03-29T04:35:56.614Z,688.00
2023-03-29T04:36:56.583Z,689.00
2023-03-29T04:37:56.552Z,694.00
2023-03-29T04:38:56.601Z,678.00
2023-03-29T04:39:56.511Z,697.00
2023-03-29T04:40:56.499Z,670.00
2023-03-29T04:41:56.469Z,681.00
2023-03-29T04:42:56.441Z,677.00
2023-03-29T04:43:56.425Z,682.00
2023-03-29T04:44:56.421Z,676.00
2023-03-29T04:45:56.419Z,683.00
2023-03-29T04:46:56.369Z,681.00
2023-03-29T04:47:56.439Z,682.00
2023-03-29T04:48:56.329Z,666.00
2023-03-29T04:49:56.314Z,668.00
2023-03-29T04:50:56.282Z,673.00
2023-03-29T04:51:56.260Z,668.00
2023-03-29T04:52:56.233Z,666.00
2023-03-29T04:53:56.215Z,662.00
2023-03-29T04:54:56.257Z,664.00
2023-03-29T04:55:56.187Z,664.00
2023-03-29T04:56:56.180Z,663.00
2023-03-29T04:57:56.159Z,663.00
2023-03-29T04:58:56.138Z,662.00
2023-03-29T04:59:56.116Z,664.00
2023-03-29T05:00:56.097Z,663.00
2023-03-29T05:01:56.142Z,668.00
2023-03-29T05:02:56.153Z,663.00
2023-03-29T05:03:56.131Z,666.00
2023-03-29T05:04:56.034Z,666.00
2023-03-29T05:05:56.010Z,662.00
2023-03-29T05:06:55.989Z,663.00
2023-03-29T05:07:55.968Z,666.00
2023-03-29T05:08:55.973Z,660.00
2023-03-29T05:09:55.932Z,670.00
2023-03-29T05:10:55.927Z,665.00
2023-03-29T05:11:55.916Z,672.00
2023-03-29T05:12:55.954Z,663.00
2023-03-29T05:13:55.867Z,665.00
2023-03-29T05:14:55.850Z,661.00
2023-03-29T05:15:55.867Z,668.00
2023-03-29T05:16:55.800Z,664.00
2023-03-29T05:17:55.931Z,653.00
2023-03-29T05:18:55.758Z,647.00
2023-03-29T05:19:55.729Z,640.00
2023-03-29T05:20:55.716Z,640.00
2023-03-29T05:21:55.691Z,639.00
2023-03-29T05:22:55.701Z,632.00
2023-03-29T05:23:55.674Z,631.00
2023-03-29T05:24:55.643Z,627.00
2023-03-29T05:25:55.636Z,629.00
2023-03-29T05:26:55.600Z,637.00
2023-03-29T05:27:55.579Z,635.00
2023-03-29T05:28:55.560Z,631.00
2023-03-29T05:29:55.541Z,630.00
2023-03-29T05:30:55.512Z,641.00
2023-03-29T05:31:55.507Z,656.00
2023-03-29T05:32:55.522Z,674.00
2023-03-29T05:33:55.444Z,694.00
2023-03-29T05:34:55.478Z,746.00
2023-03-29T05:35:55.416Z,751.00
2023-03-29T05:36:55.368Z,774.00
2023-03-29T05:37:55.351Z,769.00
2023-03-29T05:38:55.331Z,780.00
2023-03-29T05:40:05.593Z,783.00
2023-03-29T05:40:56.298Z,784.00
2023-03-29T05:41:55.271Z,787.00
2023-03-29T05:42:55.250Z,790.00
2023-03-29T05:43:55.216Z,804.00
2023-03-29T05:44:55.193Z,808.00
2023-03-29T05:45:55.231Z,819.00
2023-03-29T05:46:55.143Z,825.00
2023-03-29T05:47:55.126Z,826.00
2023-03-29T05:48:55.075Z,825.00
2023-03-29T05:49:55.062Z,834.00
2023-03-29T05:50:55.035Z,845.00
2023-03-29T05:51:55.001Z,858.00
2023-03-29T05:52:55.076Z,858.00
2023-03-29T05:53:54.941Z,863.00
2023-03-29T05:54:54.912Z,874.00
2023-03-29T05:55:54.906Z,870.00
2023-03-29T05:56:54.904Z,876.00
2023-03-29T05:57:54.858Z,874.00
2023-03-29T05:58:55.169Z,877.00
2023-03-29T05:59:54.824Z,875.00
2023-03-29T06:00:54.796Z,876.00
2023-03-29T06:01:54.800Z,867.00
2023-03-29T06:02:56.374Z,877.00
2023-03-29T06:03:54.968Z,877.00
2023-03-29T06:04:54.729Z,877.00
2023-03-29T06:05:54.694Z,885.00
2023-03-29T06:06:54.670Z,884.00
2023-03-29T06:07:54.644Z,889.00
2023-03-29T06:08:54.621Z,900.00
2023-03-29T06:09:54.594Z,900.00
2023-03-29T06:10:55.549Z,893.00
2023-03-29T06:11:54.546Z,904.00
2023-03-29T06:12:54.525Z,900.00
2023-03-29T06:13:54.506Z,915.00
2023-03-29T06:14:54.495Z,902.00
2023-03-29T06:15:54.481Z,900.00
2023-03-29T06:16:54.499Z,912.00
2023-03-29T06:17:54.447Z,899.00
2023-03-29T06:18:54.406Z,908.00
2023-03-29T06:19:54.405Z,908.00
2023-03-29T06:20:54.394Z,923.00
2023-03-29T06:21:54.353Z,920.00
2023-03-29T06:22:54.316Z,917.00
2023-03-29T06:23:54.283Z,918.00
2023-03-29T06:24:54.268Z,889.00
2023-03-29T06:25:55.136Z,913.00
2023-03-29T06:26:54.240Z,916.00
2023-03-29T06:27:54.225Z,906.00
2023-03-29T06:28:54.187Z,929.00
2023-03-29T06:29:54.208Z,937.00
2023-03-29T06:30:54.191Z,875.00
2023-03-29T06:31:54.130Z,934.00
2023-03-29T06:32:54.163Z,940.00
2023-03-29T06:33:54.102Z,965.00
2023-03-29T06:34:54.078Z,986.00
2023-03-29T06:35:54.121Z,997.00
2023-03-29T06:36:54.042Z,1003.00
2023-03-29T06:37:54.033Z,1035.00
2023-03-29T06:38:53.997Z,1076.00
2023-03-29T06:39:53.981Z,1083.00
2023-03-29T06:40:53.960Z,1109.00
2023-03-29T06:41:54.054Z,1146.00
2023-03-29T06:42:53.942Z,1160.00
2023-03-29T06:43:53.890Z,1181.00
2023-03-29T06:44:54.051Z,1201.00
2023-03-29T06:45:53.877Z,1224.00
2023-03-29T06:46:53.868Z,1211.00
2023-03-29T06:47:53.888Z,1222.00
2023-03-29T06:48:53.781Z,1247.00
2023-03-29T06:49:53.751Z,1280.00
2023-03-29T06:50:53.735Z,1320.00
2023-03-29T06:51:53.712Z,1334.00
2023-03-29T06:52:53.689Z,1378.00
2023-03-29T06:53:53.664Z,1417.00
2023-03-29T06:54:53.646Z,1454.00
2023-03-29T06:55:53.611Z,1472.00
2023-03-29T06:56:53.592Z,1499.00
2023-03-29T06:57:53.760Z,1525.00
2023-03-29T06:58:53.524Z,1543.00
2023-03-29T06:59:53.492Z,1580.00
2023-03-29T07:00:53.443Z,1599.00
2023-03-29T07:01:53.444Z,1645.00
2023-03-29T07:02:53.382Z,1687.00
2023-03-29T07:03:53.361Z,1713.00
2023-03-29T07:04:53.310Z,1747.00
2023-03-29T07:05:53.274Z,1751.00
2023-03-29T07:06:53.242Z,1783.00
2023-03-29T07:07:53.211Z,1798.00
2023-03-29T07:08:53.186Z,1841.00
2023-03-29T07:09:53.179Z,1871.00
2023-03-29T07:10:53.201Z,1883.00
2023-03-29T07:11:53.162Z,1897.00
2023-03-29T07:12:53.122Z,1927.00
2023-03-29T07:13:53.094Z,1959.00
2023-03-29T07:14:53.071Z,1982.00
2023-03-29T07:15:53.105Z,1984.00
2023-03-29T07:16:52.989Z,1995.00
2023-03-29T07:17:52.982Z,2007.00
2023-03-29T07:18:52.939Z,2042.00
2023-03-29T07:19:52.903Z,2099.00
2023-03-29T07:20:52.883Z,2126.00
2023-03-29T07:21:52.854Z,2108.00
2023-03-29T07:22:55.666Z,2129.00
2023-03-29T07:23:52.774Z,2150.00
2023-03-29T07:24:53.000Z,2131.00
2023-03-29T07:25:52.726Z,2152.00
2023-03-29T07:27:52.678Z,2151.00
2023-03-29T07:28:52.639Z,2149.00
2023-03-29T07:29:52.615Z,2135.00
2023-03-29T07:30:52.582Z,2128.00
2023-03-29T07:31:52.568Z,2112.00
2023-03-29T07:32:52.649Z,2108.00
2023-03-29T07:33:52.573Z,2122.00
2023-03-29T07:34:52.490Z,2090.00
2023-03-29T07:35:52.496Z,2064.00
2023-03-29T07:36:52.415Z,2060.00
2023-03-29T07:37:52.384Z,2041.00
2023-03-29T07:38:53.987Z,2020.00
2023-03-29T07:39:52.336Z,2021.00
2023-03-29T07:40:52.316Z,2021.00
2023-03-29T07:41:52.682Z,2018.00
2023-03-29T07:42:52.236Z,2009.00
2023-03-29T07:43:52.196Z,1971.00
2023-03-29T07:44:52.168Z,1941.00
2023-03-29T07:45:52.155Z,1922.00
2023-03-29T07:46:52.112Z,1911.00
2023-03-29T07:47:52.697Z,1887.00
2023-03-29T07:48:52.040Z,1884.00
2023-03-29T07:49:52.008Z,1873.00
2023-03-29T07:50:51.977Z,1871.00
2023-03-29T07:51:51.948Z,1860.00
2023-03-29T07:52:51.931Z,1845.00
2023-03-29T07:53:51.891Z,1848.00
2023-03-29T07:54:51.891Z,1814.00
2023-03-29T07:55:51.853Z,1805.00
2023-03-29T07:56:51.850Z,1789.00
2023-03-29T07:57:51.806Z,1759.00
2023-03-29T07:58:51.781Z,1755.00
2023-03-29T07:59:51.787Z,1732.00
2023-03-29T08:00:51.839Z,1731.00
2023-03-29T08:01:51.708Z,1716.00
2023-03-29T08:02:51.781Z,1707.00
2023-03-29T08:03:51.706Z,1700.00
2023-03-29T08:04:51.675Z,1677.00
2023-03-29T08:05:51.628Z,1669.00
2023-03-29T08:06:51.590Z,1652.00
2023-03-29T08:07:51.570Z,1643.00
2023-03-29T08:08:51.541Z,1612.00
2023-03-29T08:09:52.171Z,1609.00
2023-03-29T08:10:52.115Z,1580.00
2023-03-29T08:11:51.489Z,1522.00
2023-03-29T08:12:51.476Z,1532.00
2023-03-29T08:13:51.450Z,1549.00
2023-03-29T08:14:51.441Z,1538.00
2023-03-29T08:15:51.410Z,1506.00
2023-03-29T08:16:52.228Z,1552.00
2023-03-29T08:17:51.413Z,984.00
2023-03-29T08:18:51.361Z,574.00
2023-03-29T08:19:52.390Z,533.00
2023-03-29T08:20:51.338Z,542.00
2023-03-29T08:21:51.317Z,588.00
2023-03-29T08:22:51.309Z,633.00
2023-03-29T08:23:51.307Z,716.00
2023-03-29T08:24:51.275Z,764.00
2023-03-29T08:25:51.263Z,810.00
2023-03-29T08:26:51.258Z,864.00
2023-03-29T08:27:51.237Z,874.00
2023-03-29T08:28:51.222Z,773.00
2023-03-29T08:29:51.203Z,864.00
2023-03-29T08:30:51.216Z,910.00
2023-03-29T08:31:51.253Z,976.00
2023-03-29T08:32:53.798Z,1004.00
2023-03-29T08:33:51.129Z,1006.00
2023-03-29T08:34:51.102Z,1019.00
2023-03-29T08:35:51.159Z,1054.00
2023-03-29T08:36:51.054Z,1113.00
2023-03-29T08:37:51.026Z,1203.00
2023-03-29T08:38:50.999Z,1234.00
2023-03-29T08:39:50.968Z,1281.00
2023-03-29T08:40:50.944Z,1324.00
2023-03-29T08:41:50.922Z,1349.00
2023-03-29T08:42:50.889Z,1400.00
2023-03-29T08:43:50.871Z,1415.00
2023-03-29T08:44:50.846Z,1481.00
2023-03-29T08:45:51.219Z,1485.00
2023-03-29T08:46:50.802Z,1527.00
2023-03-29T08:47:50.826Z,1541.00
2023-03-29T08:48:50.719Z,1575.00
2023-03-29T08:49:50.700Z,1586.00
2023-03-29T08:50:50.641Z,1610.00
2023-03-29T08:51:51.174Z,1645.00
2023-03-29T08:52:50.572Z,1660.00
2023-03-29T08:53:51.106Z,1686.00
2023-03-29T08:54:50.504Z,1696.00
2023-03-29T08:55:50.453Z,1738.00
2023-03-29T08:56:50.454Z,1776.00
2023-03-29T08:57:50.384Z,1784.00
2023-03-29T08:58:50.352Z,1802.00
2023-03-29T08:59:50.328Z,1824.00
2023-03-29T09:00:50.299Z,1853.00
2023-03-29T09:01:50.286Z,1866.00
2023-03-29T09:02:50.335Z,1901.00
2023-03-29T09:03:50.341Z,1901.00
2023-03-29T09:04:51.178Z,1903.00
2023-03-29T09:05:50.162Z,1910.00
2023-03-29T09:06:50.101Z,1927.00
2023-03-29T09:07:50.052Z,1956.00
2023-03-29T09:08:50.030Z,2005.00
2023-03-29T09:09:49.967Z,2016.00
2023-03-29T09:10:49.931Z,2039.00
2023-03-29T09:11:49.891Z,2045.00
2023-03-29T09:12:49.903Z,2074.00
2023-03-29T09:13:49.919Z,2081.00
2023-03-29T09:14:49.948Z,2116.00
2023-03-29T09:15:50.020Z,2130.00
2023-03-29T09:16:49.981Z,2165.00
2023-03-29T09:17:50.075Z,2181.00
2023-03-29T09:18:50.048Z,2222.00
2023-03-29T09:19:50.998Z,2224.00
2023-03-29T09:20:49.967Z,2228.00
2023-03-29T09:21:49.938Z,2235.00
2023-03-29T09:22:49.890Z,2240.00
2023-03-29T09:23:49.865Z,2264.00
2023-03-29T09:24:49.832Z,2277.00
2023-03-29T09:25:53.427Z,2267.00
2023-03-29T09:26:49.785Z,2267.00
2023-03-29T09:27:49.750Z,2270.00
2023-03-29T09:28:49.712Z,2276.00
2023-03-29T09:29:49.706Z,2298.00
2023-03-29T09:30:49.629Z,2319.00
2023-03-29T09:31:49.664Z,2312.00
2023-03-29T09:32:50.141Z,2318.00
2023-03-29T09:33:49.528Z,2341.00
2023-03-29T09:34:49.498Z,2352.00
2023-03-29T09:35:49.531Z,2340.00
2023-03-29T09:36:49.424Z,2352.00
2023-03-29T09:37:49.385Z,2368.00
2023-03-29T09:38:49.349Z,2358.00
2023-03-29T09:39:49.334Z,2355.00
2023-03-29T09:40:49.269Z,2369.00
2023-03-29T09:41:49.254Z,2379.00
2023-03-29T09:42:49.205Z,2397.00
2023-03-29T09:43:49.201Z,2395.00
2023-03-29T09:44:49.157Z,2402.00
2023-03-29T09:45:50.198Z,2404.00
2023-03-29T09:46:49.192Z,2399.00
2023-03-29T09:47:49.254Z,2417.00
2023-03-29T09:48:49.226Z,2424.00
2023-03-29T09:49:49.243Z,2444.00
2023-03-29T09:50:49.253Z,2471.00
2023-03-29T09:51:49.260Z,2505.00
2023-03-29T09:52:49.270Z,2505.00
2023-03-29T09:53:49.280Z,2523.00
2023-03-29T09:54:49.286Z,2551.00
2023-03-29T09:55:50.375Z,2567.00
2023-03-29T09:56:49.306Z,2590.00
2023-03-29T09:57:49.304Z,2604.00
2023-03-29T09:58:49.309Z,2627.00
2023-03-29T09:59:49.302Z,2646.00
2023-03-29T10:00:49.359Z,2665.00
2023-03-29T10:01:49.381Z,2696.00
2023-03-29T10:02:49.358Z,2726.00
2023-03-29T10:03:49.407Z,2749.00
2023-03-29T10:04:49.332Z,2766.00
2023-03-29T10:05:49.322Z,2773.00
2023-03-29T10:06:49.374Z,2806.00
2023-03-29T10:07:49.304Z,2815.00
2023-03-29T10:08:49.320Z,2838.00
2023-03-29T10:09:49.316Z,2863.00
2023-03-29T10:10:49.276Z,2865.00
2023-03-29T10:11:49.228Z,2871.00
2023-03-29T10:12:49.206Z,2882.00
2023-03-29T10:13:49.153Z,2897.00
2023-03-29T10:14:50.356Z,2869.00
2023-03-29T10:15:49.072Z,2796.00
2023-03-29T10:16:49.098Z,2647.00
2023-03-29T10:17:49.061Z,2509.00
2023-03-29T10:18:48.967Z,2429.00
2023-03-29T10:19:48.928Z,2335.00
2023-03-29T10:20:48.905Z,2137.00
2023-03-29T10:21:48.861Z,2026.00
2023-03-29T10:22:48.823Z,1898.00
2023-03-29T10:23:48.805Z,1865.00
2023-03-29T10:24:48.750Z,1987.00
2023-03-29T10:25:48.716Z,2133.00
2023-03-29T10:26:48.687Z,2138.00
2023-03-29T10:27:48.653Z,2114.00
2023-03-29T10:28:48.621Z,2041.00
2023-03-29T10:29:48.602Z,2027.00
2023-03-29T10:30:48.551Z,1875.00
2023-03-29T10:31:49.253Z,1873.00
2023-03-29T10:32:48.493Z,1902.00
2023-03-29T10:33:48.434Z,1887.00
2023-03-29T10:34:48.718Z,1842.00
2023-03-29T10:35:48.399Z,1815.00
2023-03-29T10:36:48.357Z,1790.00
2023-03-29T10:37:48.323Z,1787.00
2023-03-29T10:38:48.280Z,1774.00
2023-03-29T10:39:48.274Z,1760.00
2023-03-29T10:40:48.211Z,1709.00
2023-03-29T10:41:48.176Z,1687.00
2023-03-29T10:42:48.142Z,1675.00
2023-03-29T10:43:48.109Z,1660.00
2023-03-29T10:44:48.080Z,1673.00
2023-03-29T10:45:48.084Z,1661.00
2023-03-29T10:46:48.004Z,1650.00
2023-03-29T10:47:47.974Z,1646.00
2023-03-29T10:48:47.944Z,1632.00
2023-03-29T10:49:48.184Z,1632.00
2023-03-29T10:50:47.852Z,1629.00
2023-03-29T10:51:47.822Z,1613.00
2023-03-29T10:52:47.781Z,1611.00
2023-03-29T10:53:47.743Z,1613.00
2023-03-29T10:54:47.719Z,1610.00
2023-03-29T10:55:47.669Z,1602.00
2023-03-29T10:56:47.652Z,1583.00
2023-03-29T10:57:47.600Z,1591.00
2023-03-29T10:58:47.609Z,1588.00
2023-03-29T10:59:47.650Z,1589.00
2023-03-29T11:00:47.630Z,1517.00
2023-03-29T11:01:47.743Z,1529.00
2023-03-29T11:02:47.699Z,1535.00
2023-03-29T11:03:47.755Z,1547.00
2023-03-29T11:04:47.695Z,1530.00
2023-03-29T11:05:47.717Z,1517.00
2023-03-29T11:06:47.729Z,1148.00
2023-03-29T11:07:47.762Z,1317.00
2023-03-29T11:08:47.794Z,1384.00
2023-03-29T11:09:47.802Z,1435.00
2023-03-29T11:10:47.828Z,1455.00
2023-03-29T11:11:47.859Z,1451.00
2023-03-29T11:12:47.897Z,1425.00
2023-03-29T11:13:47.910Z,1402.00
2023-03-29T11:14:47.941Z,1395.00
2023-03-29T11:15:48.014Z,1433.00
2023-03-29T11:16:47.987Z,1405.00
2023-03-29T11:17:48.044Z,1417.00
2023-03-29T11:18:48.048Z,1393.00
2023-03-29T11:19:48.059Z,1388.00
2023-03-29T11:20:48.085Z,1389.00
2023-03-29T11:21:48.122Z,1380.00
2023-03-29T11:22:48.144Z,1396.00
2023-03-29T11:23:48.187Z,1398.00
2023-03-29T11:24:48.204Z,1416.00
2023-03-29T11:25:48.221Z,1398.00
2023-03-29T11:26:48.244Z,1373.00
2023-03-29T11:27:48.274Z,1362.00
2023-03-29T11:28:48.316Z,1363.00
2023-03-29T11:29:48.340Z,1351.00
2023-03-29T11:30:48.423Z,1378.00
2023-03-29T11:31:48.422Z,1367.00
2023-03-29T11:32:48.465Z,1361.00
2023-03-29T11:33:48.467Z,1367.00
2023-03-29T11:34:48.499Z,1372.00
2023-03-29T11:35:48.571Z,1351.00
2023-03-29T11:36:48.571Z,1367.00
2023-03-29T11:37:59.428Z,1331.00
2023-03-29T11:38:48.585Z,1334.00
2023-03-29T11:39:48.547Z,1332.00
2023-03-29T11:40:48.541Z,1305.00
2023-03-29T11:41:48.494Z,1306.00
2023-03-29T11:42:48.452Z,1304.00
2023-03-29T11:43:48.422Z,1261.00
2023-03-29T11:44:48.390Z,1249.00
2023-03-29T11:45:48.361Z,1244.00
2023-03-29T11:46:48.389Z,1231.00
2023-03-29T11:47:48.388Z,1243.00
2023-03-29T11:48:48.261Z,1237.00
2023-03-29T11:49:48.229Z,1233.00
2023-03-29T11:50:48.198Z,1217.00
2023-03-29T11:51:48.149Z,1215.00
2023-03-29T11:52:48.117Z,1207.00
2023-03-29T11:53:48.086Z,1204.00
2023-03-29T11:54:48.053Z,1194.00
2023-03-29T11:55:48.005Z,1180.00
2023-03-29T11:56:47.987Z,1173.00
2023-03-29T11:57:47.906Z,1174.00
2023-03-29T11:58:47.889Z,1159.00
2023-03-29T11:59:47.901Z,1146.00
2023-03-29T12:00:47.903Z,1160.00
2023-03-29T12:01:47.929Z,1154.00
2023-03-29T12:02:48.308Z,1155.00
2023-03-29T12:03:47.974Z,1156.00
2023-03-29T12:04:47.879Z,1162.00
2023-03-29T12:05:47.872Z,1173.00
2023-03-29T12:06:47.863Z,1167.00
2023-03-29T12:07:47.861Z,1157.00
2023-03-29T12:08:47.823Z,1155.00
2023-03-29T12:09:47.840Z,1160.00
2023-03-29T12:10:47.829Z,1156.00
2023-03-29T12:11:47.800Z,1123.00
2023-03-29T12:12:47.782Z,1126.00
2023-03-29T12:13:47.758Z,1119.00
2023-03-29T12:14:47.729Z,1106.00
2023-03-29T12:15:47.708Z,1134.00
2023-03-29T12:16:47.728Z,1131.00
2023-03-29T12:17:47.737Z,1112.00
2023-03-29T12:18:47.638Z,1102.00
2023-03-29T12:19:47.624Z,1095.00